createdAt,value
2019-01-25T00:00:54.538Z,74.67
2019-01-25T00:03:43.444Z,74.10
2019-01-25T00:06:32.227Z,74.96
2019-01-25T00:09:21.041Z,74.86
2019-01-25T00:12:09.865Z,74.62
2019-01-25T00:14:58.674Z,74.70
2019-01-25T00:17:47.492Z,74.57
2019-01-25T00:20:36.299Z,74.55
2019-01-25T00:23:17.869Z,73.54
2019-01-25T00:26:06.740Z,73.50
2019-01-25T00:28:55.631Z,73.28
2019-01-25T00:31:44.438Z,73.95
2019-01-25T00:34:33.254Z,74.71
2019-01-25T00:37:22.050Z,74.81
2019-01-25T00:40:31.774Z,74.48
2019-01-25T00:43:20.578Z,75.47
2019-01-25T00:46:09.435Z,75.84
2019-01-25T00:48:58.183Z,75.08
2019-01-25T00:51:47.000Z,75.87
2019-01-25T00:54:35.801Z,76.75
2019-01-25T00:57:24.616Z,76.25
2019-01-25T01:00:32.730Z,75.05
2019-01-25T01:03:21.543Z,76.20
2019-01-25T01:06:10.339Z,76.90
2019-01-25T01:08:59.158Z,77.74
2019-01-25T01:11:47.952Z,77.58
2019-01-25T01:14:36.820Z,77.98
2019-01-25T01:17:17.979Z,77.92
2019-01-25T01:19:59.915Z,77.99
2019-01-25T01:29:11.467Z,77.22
2019-01-25T01:32:00.274Z,77.99
2019-01-25T01:34:49.071Z,78.62
2019-01-25T01:37:37.893Z,78.22
2019-01-25T01:40:26.688Z,78.07
2019-01-25T01:43:15.509Z,78.09
2019-01-25T01:49:18.993Z,77.80
2019-01-25T01:52:07.793Z,77.82
2019-01-25T01:54:56.607Z,77.25
2019-01-25T01:57:45.410Z,76.73
2019-01-25T02:00:34.224Z,77.66
2019-01-25T02:03:23.022Z,77.54
2019-01-25T02:06:11.850Z,78.14
2019-01-25T02:09:00.636Z,77.26
2019-01-25T02:11:49.456Z,77.62
2019-01-25T02:14:38.259Z,76.93
2019-01-25T02:17:27.140Z,76.42
2019-01-25T02:20:10.607Z,76.82
2019-01-25T02:22:59.554Z,76.54
2019-01-25T02:26:07.373Z,76.01
2019-01-25T02:28:56.185Z,76.01
2019-01-25T02:31:44.988Z,76.37
2019-01-25T02:34:33.809Z,76.25
2019-01-25T02:37:22.613Z,76.53
2019-01-25T02:40:38.640Z,75.75
2019-01-25T02:43:22.863Z,76.08
2019-01-25T02:46:11.711Z,77.09
2019-01-25T02:49:00.507Z,77.47
2019-01-25T02:51:49.321Z,77.68
2019-01-25T02:54:38.134Z,77.63
2019-01-25T02:57:26.957Z,78.25
2019-01-25T03:00:36.687Z,77.59
2019-01-25T03:03:25.489Z,77.37
2019-01-25T03:06:14.300Z,76.82
2019-01-25T03:12:12.497Z,76.19
2019-01-25T03:15:01.338Z,75.62
2019-01-25T03:18:09.354Z,76.42
2019-01-25T03:20:51.444Z,76.97
2019-01-25T03:23:40.266Z,77.61
2019-01-25T03:26:29.065Z,77.12
2019-01-25T03:29:17.874Z,76.50
2019-01-25T03:32:06.669Z,75.91
2019-01-25T03:34:55.483Z,75.61
2019-01-25T03:37:44.307Z,76.04
2019-01-25T03:40:33.092Z,76.38
2019-01-25T03:43:21.909Z,76.72
2019-01-25T03:46:10.707Z,76.39
2019-01-25T03:48:59.542Z,75.87
2019-01-25T03:51:48.339Z,75.25
2019-01-25T03:54:37.162Z,76.05
2019-01-25T03:57:25.979Z,75.73
2019-01-25T04:00:35.696Z,75.51
2019-01-25T04:03:24.493Z,74.71
2019-01-25T04:06:13.305Z,74.87
2019-01-25T04:09:02.109Z,75.28
2019-01-25T04:14:45.271Z,77.50
2019-01-25T04:17:53.360Z,77.06
2019-01-25T04:20:35.224Z,77.21
2019-01-25T04:23:24.040Z,77.09
2019-01-25T04:26:12.882Z,76.74
2019-01-25T04:29:01.731Z,77.62
2019-01-25T04:31:50.533Z,77.61
2019-01-25T04:34:39.348Z,77.68
2019-01-25T04:37:28.151Z,77.32
2019-01-25T04:40:37.880Z,76.85
2019-01-25T04:43:26.681Z,76.56
2019-01-25T04:46:15.492Z,75.74
2019-01-25T04:49:04.289Z,75.17
2019-01-25T04:51:53.100Z,76.24
2019-01-25T04:57:49.684Z,76.21
2019-01-25T05:00:38.483Z,76.04
2019-01-25T05:06:36.683Z,74.93
2019-01-25T05:09:25.478Z,75.21
2019-01-25T05:12:14.296Z,75.87
2019-01-25T05:15:03.159Z,75.43
2019-01-25T05:18:12.891Z,75.60
2019-01-25T05:20:54.180Z,76.29
2019-01-25T05:23:42.996Z,76.75
2019-01-25T05:26:31.795Z,76.42
2019-01-25T05:32:35.640Z,75.65
2019-01-25T05:35:24.432Z,76.17
2019-01-25T05:38:13.251Z,75.99
2019-01-25T05:41:02.112Z,76.42
2019-01-25T05:43:50.941Z,77.16
2019-01-25T05:46:39.979Z,76.47
2019-01-25T05:49:28.796Z,75.71
2019-01-25T05:55:46.277Z,75.38
2019-01-25T05:58:35.082Z,74.84
2019-01-25T06:01:23.906Z,75.78
2019-01-25T06:04:12.706Z,76.24
2019-01-25T06:07:01.803Z,75.33
2019-01-25T06:09:50.581Z,75.86
2019-01-25T06:12:39.399Z,75.44
2019-01-25T06:15:49.104Z,75.03
2019-01-25T06:18:37.919Z,75.89
2019-01-25T06:21:19.461Z,75.63
2019-01-25T06:24:08.274Z,75.48
2019-01-25T06:26:57.067Z,75.02
2019-01-25T06:29:45.879Z,75.04
2019-01-25T06:32:34.677Z,75.63
2019-01-25T06:35:23.494Z,75.90
2019-01-25T06:38:12.305Z,75.89
2019-01-25T06:41:01.105Z,74.90
2019-01-25T06:43:49.923Z,75.52
2019-01-25T06:46:38.719Z,74.49
2019-01-25T06:49:27.543Z,74.69
2019-01-25T06:52:16.336Z,73.57
2019-01-25T06:55:26.066Z,73.74
2019-01-25T06:58:33.887Z,73.41
2019-01-25T07:04:21.729Z,72.57
2019-01-25T07:13:35.402Z,72.24
2019-01-25T07:16:24.201Z,71.97
2019-01-25T07:19:13.008Z,72.01
2019-01-25T07:22:01.804Z,72.02
2019-01-25T07:24:56.923Z,71.71
2019-01-25T07:27:41.197Z,71.67
2019-01-25T07:30:30.078Z,72.11
2019-01-25T07:33:19.183Z,72.05
2019-01-25T07:36:08.070Z,71.88
2019-01-25T07:38:56.865Z,71.82
2019-01-25T07:41:45.703Z,72.83
2019-01-25T07:44:34.517Z,73.42
2019-01-25T07:47:23.358Z,72.17
2019-01-25T07:53:40.978Z,71.38
2019-01-25T07:56:29.789Z,71.99
2019-01-25T07:59:18.597Z,71.90
2019-01-25T08:02:07.393Z,71.34
2019-01-25T08:04:56.258Z,70.62
2019-01-25T08:07:45.026Z,70.36
2019-01-25T08:10:35.574Z,69.11
2019-01-25T08:13:24.612Z,68.41
2019-01-25T08:16:14.965Z,68.56
2019-01-25T08:22:24.838Z,68.25
2019-01-25T08:25:13.706Z,68.04
2019-01-25T08:28:02.543Z,68.12
2019-01-25T08:30:51.326Z,68.02
2019-01-25T08:33:41.864Z,67.30
2019-01-25T08:36:30.686Z,67.01
2019-01-25T08:39:19.506Z,66.91
2019-01-25T08:42:15.284Z,66.07
2019-01-25T08:44:59.740Z,65.22
2019-01-25T08:47:49.700Z,65.69
2019-01-25T08:50:38.501Z,65.32
2019-01-25T08:53:27.344Z,65.43
2019-01-25T08:56:16.128Z,66.19
2019-01-25T08:59:05.238Z,66.08
2019-01-25T09:01:54.088Z,66.27
2019-01-25T09:04:42.913Z,65.99
2019-01-25T09:07:31.717Z,65.47
2019-01-25T09:10:41.447Z,65.55
2019-01-25T09:13:30.259Z,65.94
2019-01-25T09:19:13.268Z,66.01
2019-01-25T09:22:02.082Z,65.84
2019-01-25T09:24:43.476Z,65.74
2019-01-25T09:27:32.382Z,65.12
2019-01-25T09:30:42.082Z,64.91
2019-01-25T09:33:30.897Z,64.69
2019-01-25T09:36:19.702Z,65.30
2019-01-25T09:42:23.189Z,64.31
2019-01-25T09:48:27.387Z,64.13
2019-01-25T09:51:16.271Z,64.55
2019-01-25T09:54:25.982Z,64.47
2019-01-25T10:01:08.528Z,64.75
2019-01-25T10:03:57.354Z,64.84
2019-01-25T10:06:46.158Z,64.82
2019-01-25T10:09:34.970Z,64.61
2019-01-25T10:12:23.776Z,64.53
2019-01-25T10:15:31.907Z,65.01
2019-01-25T10:18:24.660Z,65.62
2019-01-25T10:21:11.234Z,65.73
2019-01-25T10:24:00.038Z,65.91
2019-01-25T10:26:48.855Z,65.47
2019-01-25T10:29:37.653Z,66.96
2019-01-25T10:32:26.502Z,67.82
2019-01-25T10:35:15.373Z,68.36
2019-01-25T10:38:04.846Z,68.08
2019-01-25T10:40:54.729Z,67.51
2019-01-25T10:43:43.525Z,69.16
2019-01-25T10:46:32.345Z,69.35
2019-01-25T10:52:15.435Z,68.57
2019-01-25T10:55:25.151Z,68.68
2019-01-25T10:58:14.041Z,69.40
2019-01-25T11:01:02.841Z,69.92
2019-01-25T11:03:51.661Z,68.38
2019-01-25T11:06:40.455Z,68.17
2019-01-25T11:09:29.269Z,67.88
2019-01-25T11:12:10.782Z,68.29
2019-01-25T11:15:01.329Z,68.71
2019-01-25T11:18:09.273Z,68.17
2019-01-25T11:20:58.088Z,67.70
2019-01-25T11:23:46.890Z,67.64
2019-01-25T11:26:35.714Z,66.77
2019-01-25T11:29:24.501Z,66.89
2019-01-25T11:32:13.674Z,66.71
2019-01-25T11:35:02.477Z,65.72
2019-01-25T11:38:10.453Z,65.90
2019-01-25T11:40:59.254Z,65.75
2019-01-25T11:43:48.062Z,66.06
2019-01-25T11:46:36.990Z,65.39
2019-01-25T11:49:25.895Z,64.99
2019-01-25T11:52:14.704Z,65.08
2019-01-25T11:58:18.772Z,64.58
2019-01-25T12:01:07.836Z,64.76
2019-01-25T12:03:56.643Z,63.90
2019-01-25T12:06:45.434Z,63.21
2019-01-25T12:09:34.239Z,63.58
2019-01-25T12:12:16.311Z,63.75
2019-01-25T12:15:26.037Z,62.77
2019-01-25T12:18:14.826Z,62.16
2019-01-25T12:21:03.630Z,61.74
2019-01-25T12:23:52.502Z,62.05
2019-01-25T12:29:35.445Z,62.88
2019-01-25T12:32:24.231Z,63.43
2019-01-25T12:35:32.887Z,64.10
2019-01-25T12:38:21.692Z,65.58
2019-01-25T12:41:10.485Z,65.73
2019-01-25T12:43:59.287Z,66.53
2019-01-25T12:46:48.091Z,66.31
2019-01-25T12:49:36.901Z,65.82
2019-01-25T12:52:25.721Z,65.26
2019-01-25T12:55:14.503Z,64.99
2019-01-25T13:03:57.579Z,68.83
2019-01-25T13:06:46.373Z,69.56
2019-01-25T13:09:35.182Z,70.63
2019-01-25T13:12:16.944Z,70.52
2019-01-25T13:15:26.642Z,71.51
2019-01-25T13:18:15.454Z,70.95
2019-01-25T13:21:04.314Z,70.54
2019-01-25T13:23:53.218Z,70.17
2019-01-25T13:26:42.018Z,70.37
2019-01-25T13:29:30.823Z,71.17
2019-01-25T13:32:19.773Z,70.97
2019-01-25T13:35:10.000Z,71.94
2019-01-25T13:37:59.241Z,72.32
2019-01-25T13:40:48.042Z,71.86
2019-01-25T13:43:39.149Z,71.89
2019-01-25T13:46:27.362Z,72.37
2019-01-25T13:49:16.147Z,72.94
2019-01-25T13:52:05.029Z,72.90
2019-01-25T13:54:53.818Z,72.85
2019-01-25T13:58:01.718Z,72.39
2019-01-25T14:00:50.501Z,72.13
2019-01-25T14:03:32.095Z,71.39
2019-01-25T14:06:20.881Z,71.25
2019-01-25T14:09:09.873Z,71.11
2019-01-25T14:11:58.663Z,71.41
2019-01-25T14:14:48.991Z,72.09
2019-01-25T14:17:37.997Z,72.15
2019-01-25T14:20:46.125Z,71.63
2019-01-25T14:23:34.918Z,71.90
2019-01-25T14:26:23.727Z,72.16
2019-01-25T14:29:12.517Z,73.67
2019-01-25T14:32:01.343Z,73.56
2019-01-25T14:34:50.130Z,73.55
2019-01-25T14:37:38.944Z,73.50
2019-01-25T14:40:27.826Z,73.75
2019-01-25T14:43:16.619Z,74.50
2019-01-25T14:46:05.599Z,74.54
2019-01-25T14:48:54.381Z,74.04
2019-01-25T14:51:43.191Z,74.18
2019-01-25T14:54:31.980Z,74.37
2019-01-25T14:57:21.663Z,74.10
2019-01-25T15:03:19.840Z,73.73
2019-01-25T15:06:27.659Z,74.31
2019-01-25T15:09:16.832Z,74.43
2019-01-25T15:12:25.363Z,74.74
2019-01-25T15:15:35.078Z,74.62
2019-01-25T15:18:23.889Z,74.23
2019-01-25T15:21:12.669Z,74.19
2019-01-25T15:24:01.501Z,74.13
2019-01-25T15:26:50.303Z,74.22
2019-01-25T15:29:39.099Z,74.71
2019-01-25T15:32:27.911Z,74.86
2019-01-25T15:35:37.632Z,75.21
2019-01-25T15:38:26.469Z,75.71
2019-01-25T15:41:15.447Z,75.78
2019-01-25T15:47:32.746Z,76.06
2019-01-25T15:50:40.911Z,75.92
2019-01-25T15:53:29.753Z,75.87
2019-01-25T15:56:18.684Z,75.65
2019-01-25T15:59:00.871Z,75.68
2019-01-25T16:01:49.729Z,75.37
2019-01-25T16:04:38.609Z,74.87
2019-01-25T16:07:27.452Z,74.59
2019-01-25T16:10:37.225Z,74.64
2019-01-25T16:13:26.045Z,74.37
2019-01-25T16:16:14.968Z,74.88
2019-01-25T16:19:03.816Z,75.42
2019-01-25T16:24:46.804Z,76.05
2019-01-25T16:27:35.769Z,76.56
2019-01-25T16:30:43.946Z,77.76
2019-01-25T16:33:32.827Z,77.97
2019-01-25T16:36:21.655Z,78.30
2019-01-25T16:39:10.533Z,78.35
2019-01-25T16:41:59.355Z,78.22
2019-01-25T16:44:48.235Z,78.92
2019-01-25T16:50:44.787Z,78.77
2019-01-25T16:53:33.626Z,79.06
2019-01-25T16:56:15.418Z,78.50
2019-01-25T17:02:32.642Z,78.42
2019-01-25T17:05:21.502Z,77.93
2019-01-25T17:08:10.386Z,77.78
2019-01-25T17:10:59.178Z,77.87
2019-01-25T17:13:48.062Z,77.80
2019-01-25T17:19:44.610Z,78.80
2019-01-25T17:22:33.409Z,79.06
2019-01-25T17:25:22.497Z,79.01
2019-01-25T17:28:11.280Z,78.78
2019-01-25T17:31:00.082Z,78.67
2019-01-25T17:33:48.877Z,78.73
2019-01-25T17:36:37.694Z,78.60
2019-01-25T17:39:27.505Z,78.26
2019-01-25T17:42:17.014Z,78.50
2019-01-25T17:45:26.728Z,78.31
2019-01-25T17:48:15.527Z,78.05
2019-01-25T17:51:04.310Z,78.01
2019-01-25T17:53:53.255Z,78.27
2019-01-25T17:56:34.686Z,78.18
2019-01-25T17:59:23.501Z,78.23
2019-01-25T18:02:12.403Z,78.11
2019-01-25T18:05:01.183Z,78.41
2019-01-25T18:07:50.001Z,79.08
2019-01-25T18:10:38.802Z,79.22
2019-01-25T18:13:28.689Z,79.24
2019-01-25T18:16:37.149Z,79.60
2019-01-25T18:19:26.056Z,79.96
2019-01-25T18:22:14.917Z,80.62
2019-01-25T18:28:39.488Z,80.77
2019-01-25T18:31:49.213Z,81.02
2019-01-25T18:34:38.065Z,81.25
2019-01-25T18:37:26.883Z,82.05
2019-01-25T18:40:15.688Z,82.20
2019-01-25T18:43:23.966Z,82.21
2019-01-25T18:46:12.778Z,82.14
2019-01-25T18:49:01.562Z,82.81
2019-01-25T18:51:50.370Z,83.52
2019-01-25T18:54:39.176Z,83.16
2019-01-25T18:57:21.331Z,83.83
2019-01-25T19:00:31.049Z,83.99
2019-01-25T19:03:19.849Z,83.99
2019-01-25T19:06:08.683Z,84.21
2019-01-25T19:08:57.541Z,83.87
2019-01-25T19:11:46.360Z,83.58
2019-01-25T19:14:35.150Z,83.89
2019-01-25T19:17:24.013Z,83.53
2019-01-25T19:23:41.541Z,83.97
2019-01-25T19:26:30.352Z,84.48
2019-01-25T19:29:19.153Z,84.69
2019-01-25T19:32:27.370Z,84.52
2019-01-25T19:35:16.277Z,84.18
2019-01-25T19:41:34.147Z,84.59
2019-01-25T19:44:42.150Z,85.01
2019-01-25T19:50:46.135Z,85.98
2019-01-25T19:56:23.255Z,85.67
2019-01-25T19:59:32.617Z,86.12
2019-01-25T20:02:56.073Z,86.27
2019-01-25T20:08:43.387Z,85.97
2019-01-25T20:12:06.477Z,85.61
2019-01-25T20:15:03.553Z,85.55
2019-01-25T20:18:28.381Z,85.95
2019-01-25T20:24:52.192Z,85.83
2019-01-25T20:31:33.456Z,85.94
2019-01-25T20:38:10.962Z,85.87
2019-01-25T20:44:52.491Z,86.32
2019-01-25T20:47:33.626Z,86.50
2019-01-25T20:50:56.738Z,85.91
2019-01-25T20:56:40.796Z,85.76
2019-01-25T21:00:08.220Z,86.00
2019-01-25T21:13:00.275Z,86.23
2019-01-25T21:26:10.051Z,86.45
2019-01-25T21:29:18.148Z,87.02
2019-01-25T21:42:02.624Z,87.36
2019-01-25T21:45:14.467Z,86.63
2019-01-25T21:48:23.585Z,86.28
2019-01-25T21:54:30.003Z,86.59
2019-01-25T21:57:12.427Z,86.35
2019-01-25T22:00:01.374Z,87.09
2019-01-25T22:02:50.400Z,87.02
2019-01-25T22:08:33.423Z,86.86
2019-01-25T22:11:22.322Z,86.64
2019-01-25T22:14:11.121Z,86.09
2019-01-25T22:17:19.292Z,86.30
2019-01-25T22:20:29.004Z,86.21
2019-01-25T22:26:12.403Z,85.92
2019-01-25T22:29:01.210Z,86.27
2019-01-25T22:31:50.013Z,86.00
2019-01-25T22:34:38.832Z,86.19
2019-01-25T22:37:27.627Z,86.36
2019-01-25T22:40:37.345Z,86.24
2019-01-25T22:43:26.142Z,86.04
2019-01-25T22:46:14.957Z,85.84
2019-01-25T22:49:03.743Z,86.73
2019-01-25T22:51:52.555Z,86.70
2019-01-25T22:54:41.367Z,87.04
2019-01-25T22:57:22.588Z,86.92
2019-01-25T23:00:51.335Z,86.57
2019-01-25T23:04:01.052Z,86.67
2019-01-25T23:06:49.848Z,86.53
2019-01-25T23:09:38.667Z,86.84
2019-01-25T23:12:27.465Z,86.70
2019-01-25T23:15:16.548Z,86.62
2019-01-25T23:18:05.505Z,87.01
2019-01-25T23:20:54.415Z,87.27
2019-01-25T23:23:43.221Z,87.42
2019-01-25T23:26:32.038Z,87.26
2019-01-25T23:29:20.843Z,87.08
2019-01-25T23:32:09.649Z,87.14
2019-01-25T23:34:58.451Z,86.88
2019-01-25T23:37:47.260Z,87.29
2019-01-25T23:40:36.049Z,87.21
2019-01-25T23:43:24.857Z,87.42
2019-01-25T23:46:14.000Z,87.53
2019-01-25T23:49:04.260Z,87.35
2019-01-25T23:51:53.047Z,87.49
2019-01-25T23:54:41.857Z,87.28
2019-01-25T23:57:23.649Z,86.97
